createdAt,value
2023-05-14T00:00:17.319Z,10.9486
2023-05-14T00:01:17.321Z,10.9451
2023-05-14T00:02:17.908Z,10.9402
2023-05-14T00:03:18.917Z,10.9326
2023-05-14T00:04:19.840Z,10.9230
2023-05-14T00:05:20.084Z,10.9126
2023-05-14T00:06:20.242Z,10.9001
2023-05-14T00:07:20.556Z,10.8858
2023-05-14T00:08:21.526Z,10.8696
2023-05-14T00:09:22.686Z,10.8537
2023-05-14T00:10:23.545Z,10.8374
2023-05-14T00:11:24.233Z,10.8196
2023-05-14T00:12:24.372Z,10.8054
2023-05-14T00:13:24.660Z,10.7934
2023-05-14T00:14:24.793Z,10.7805
2023-05-14T00:15:25.832Z,10.7661
2023-05-14T00:16:27.152Z,10.7523
2023-05-14T00:17:28.023Z,10.7358
2023-05-14T00:18:28.823Z,10.7137
2023-05-14T00:20:49.517Z,10.6482
2023-05-14T00:28:56.742Z,10.3525
2023-05-14T00:30:56.408Z,10.2745
2023-05-14T00:31:56.357Z,10.2372
2023-05-14T00:32:57.275Z,10.2010
2023-05-14T00:33:58.144Z,10.1646
2023-05-14T00:34:59.520Z,10.1340
2023-05-14T00:36:00.418Z,10.1029
2023-05-14T00:37:01.105Z,10.0716
2023-05-14T00:38:01.593Z,10.0391
2023-05-14T00:39:02.495Z,10.0115
2023-05-14T00:40:03.138Z,9.9917
2023-05-14T00:41:03.512Z,9.9734
2023-05-14T00:45:05.218Z,9.8927
2023-05-14T00:46:05.498Z,9.8738
2023-05-14T00:47:07.273Z,9.8552
2023-05-14T00:48:07.938Z,9.8359
2023-05-14T00:49:08.270Z,9.8180
2023-05-14T00:50:09.275Z,9.8029
2023-05-14T00:51:09.862Z,9.7876
2023-05-14T00:52:09.992Z,9.7738
2023-05-14T00:53:10.149Z,9.7619
2023-05-14T00:54:11.656Z,9.7506
2023-05-14T01:00:16.664Z,9.7448
2023-05-14T01:05:18.474Z,9.7439
2023-05-14T01:14:22.885Z,9.8525
2023-05-14T01:15:23.354Z,9.8660
2023-05-14T01:16:23.838Z,9.8775
2023-05-14T01:17:24.969Z,9.8882
2023-05-14T01:18:24.991Z,9.8982
2023-05-14T01:19:26.197Z,9.9093
2023-05-14T01:20:27.644Z,9.9218
2023-05-14T01:21:27.913Z,9.9388
2023-05-14T01:22:29.119Z,9.9537
2023-05-14T01:35:33.132Z,10.0977
2023-05-14T01:37:33.275Z,10.1118
2023-05-14T01:38:34.218Z,10.1196
2023-05-14T01:40:35.200Z,10.1344
2023-05-14T01:41:36.115Z,10.1410
2023-05-14T01:42:37.250Z,10.1481
2023-05-14T01:43:37.475Z,10.1538
2023-05-14T01:44:37.841Z,10.1600
2023-05-14T01:51:41.113Z,10.2033
2023-05-14T01:59:46.509Z,10.2427
2023-05-14T02:00:46.550Z,10.2458
2023-05-14T02:02:49.765Z,10.2521
2023-05-14T02:03:50.147Z,10.2540
2023-05-14T02:05:53.668Z,10.2571
2023-05-14T02:07:54.512Z,10.2593
2023-05-14T02:08:54.857Z,10.2582
2023-05-14T02:09:56.006Z,10.2570
2023-05-14T02:10:57.047Z,10.2545
2023-05-14T02:11:57.378Z,10.2507
2023-05-14T02:12:57.452Z,10.2471
2023-05-14T02:13:57.829Z,10.2436
2023-05-14T02:14:59.042Z,10.2390
2023-05-14T02:20:02.134Z,10.1976
2023-05-14T02:21:02.938Z,10.1842
2023-05-14T02:22:03.789Z,10.1730
2023-05-14T02:23:03.908Z,10.1637
2023-05-14T02:24:05.174Z,10.1535
2023-05-14T02:25:05.860Z,10.1436
2023-05-14T02:26:06.912Z,10.1354
2023-05-14T02:35:15.101Z,10.0498
2023-05-14T02:36:14.541Z,10.0370
2023-05-14T02:37:14.888Z,10.0238
2023-05-14T02:38:15.533Z,10.0056
2023-05-14T02:39:15.890Z,9.9881
2023-05-14T02:40:16.811Z,9.9699
2023-05-14T02:41:18.317Z,9.9462
2023-05-14T02:42:19.274Z,9.9210
2023-05-14T02:44:20.862Z,9.8717
2023-05-14T02:45:21.324Z,9.8475
2023-05-14T02:46:21.614Z,9.8225
2023-05-14T02:47:22.696Z,9.7978
2023-05-14T02:48:23.393Z,9.7749
2023-05-14T02:49:24.580Z,9.7515
2023-05-14T02:50:25.273Z,9.7308
2023-05-14T02:51:25.468Z,9.7141
2023-05-14T02:52:26.180Z,9.7002
2023-05-14T02:53:26.880Z,9.6896
2023-05-14T02:54:27.433Z,9.6827
2023-05-14T02:55:28.465Z,9.6786
2023-05-14T02:56:29.219Z,9.6774
2023-05-14T02:57:29.320Z,9.6765
2023-05-14T02:58:30.227Z,9.6757
2023-05-14T02:59:30.507Z,9.6759
2023-05-14T03:00:30.539Z,9.6773
2023-05-14T03:01:31.345Z,9.6786
2023-05-14T03:02:32.162Z,9.6797
2023-05-14T03:11:42.262Z,9.6846
2023-05-14T03:13:41.998Z,9.6918
2023-05-14T03:14:43.517Z,9.6963
2023-05-14T03:15:44.774Z,9.6973
2023-05-14T03:16:45.620Z,9.6952
2023-05-14T03:17:46.821Z,9.6889
2023-05-14T03:21:48.335Z,9.6225
2023-05-14T03:22:49.175Z,9.5967
2023-05-14T03:23:49.930Z,9.5642
2023-05-14T03:24:50.183Z,9.5285
2023-05-14T03:25:50.538Z,9.4902
2023-05-14T03:26:51.920Z,9.4484
2023-05-14T03:31:55.725Z,9.2122
2023-05-14T03:42:02.944Z,8.8689
2023-05-14T03:43:03.437Z,8.8502
2023-05-14T03:44:03.657Z,8.8352
2023-05-14T03:45:04.532Z,8.8237
2023-05-14T03:46:05.442Z,8.8188
2023-05-14T03:48:06.331Z,8.8216
2023-05-14T03:49:06.941Z,8.8279
2023-05-14T03:51:06.722Z,8.8480
2023-05-14T03:52:10.597Z,8.8589
2023-05-14T03:54:09.318Z,8.8833
2023-05-14T04:02:13.972Z,8.9833
2023-05-14T04:03:14.707Z,8.9977
2023-05-14T04:04:15.790Z,9.0130
2023-05-14T04:05:17.190Z,9.0289
2023-05-14T04:07:18.093Z,9.0690
2023-05-14T04:08:19.112Z,9.0913
2023-05-14T04:10:20.317Z,9.1392
2023-05-14T04:11:20.547Z,9.1648
2023-05-14T04:12:20.559Z,9.1911
2023-05-14T04:13:22.097Z,9.2173
2023-05-14T04:14:22.815Z,9.2452
2023-05-14T04:18:24.553Z,9.3769
2023-05-14T04:19:24.650Z,9.4197
2023-05-14T04:20:24.886Z,9.4634
2023-05-14T04:21:26.125Z,9.5055
2023-05-14T04:22:26.361Z,9.5489
2023-05-14T04:23:26.604Z,9.5918
2023-05-14T04:24:27.786Z,9.6333
2023-05-14T04:30:32.613Z,9.8675
2023-05-14T04:31:34.567Z,9.9070
2023-05-14T04:35:35.708Z,10.0674
2023-05-14T04:36:36.442Z,10.1072
2023-05-14T04:37:37.129Z,10.1450
2023-05-14T04:38:37.312Z,10.1844
2023-05-14T04:43:40.252Z,10.3754
2023-05-14T04:49:44.212Z,10.6241
2023-05-14T04:50:45.274Z,10.6693
2023-05-14T04:51:46.112Z,10.7220
2023-05-14T04:52:46.802Z,10.7779
2023-05-14T04:53:47.762Z,10.8319
2023-05-14T04:54:47.508Z,10.8886
2023-05-14T04:55:48.448Z,10.9486
2023-05-14T05:01:53.309Z,11.3659
2023-05-14T05:13:02.079Z,11.7170
2023-05-14T05:14:02.749Z,11.7524
2023-05-14T05:16:02.808Z,11.8378
2023-05-14T05:17:03.271Z,11.8900
2023-05-14T05:18:04.807Z,11.9434
2023-05-14T05:19:05.908Z,11.9957
2023-05-14T05:20:06.790Z,12.0537
2023-05-14T05:21:07.254Z,12.1073
2023-05-14T05:28:10.863Z,12.4674
2023-05-14T05:29:11.186Z,12.5145
2023-05-14T05:30:11.783Z,12.5545
2023-05-14T05:31:13.169Z,12.5883
2023-05-14T05:33:13.229Z,12.6633
2023-05-14T05:35:13.941Z,12.7444
2023-05-14T05:36:14.593Z,12.7906
2023-05-14T05:37:15.910Z,12.8513
2023-05-14T05:51:27.929Z,13.4677
2023-05-14T05:52:28.720Z,13.5350
2023-05-14T05:53:29.423Z,13.6046
2023-05-14T05:54:30.054Z,13.6821
2023-05-14T05:55:31.285Z,13.7639
2023-05-14T05:56:32.560Z,13.8534
2023-05-14T05:57:32.623Z,13.9432
2023-05-14T05:58:33.280Z,14.0366
2023-05-14T05:59:34.007Z,14.1294
2023-05-14T06:09:38.585Z,14.2519
2023-05-14T06:10:39.137Z,14.1931
2023-05-14T06:11:39.382Z,14.1260
2023-05-14T06:12:39.965Z,14.0569
2023-05-14T06:13:40.738Z,14.0004
2023-05-14T06:14:41.188Z,13.9489
2023-05-14T06:15:43.053Z,13.8971
2023-05-14T06:16:44.407Z,13.8531
2023-05-14T06:17:44.854Z,13.8193
2023-05-14T06:18:45.803Z,13.7971
2023-05-14T06:19:46.352Z,13.7834
2023-05-14T06:20:46.527Z,13.7687
2023-05-14T06:22:49.843Z,13.7325
2023-05-14T06:23:50.302Z,13.7205
2023-05-14T06:24:50.358Z,13.7129
2023-05-14T06:26:54.662Z,13.7010
2023-05-14T06:27:55.006Z,13.6898
2023-05-14T06:28:55.091Z,13.6742
2023-05-14T06:30:57.474Z,13.6230
2023-05-14T06:31:57.812Z,13.5986
2023-05-14T06:34:01.022Z,13.5767
2023-05-14T06:35:02.108Z,13.5976
2023-05-14T06:37:02.866Z,13.6628
2023-05-14T06:38:02.934Z,13.6922
2023-05-14T06:39:03.690Z,13.7220
2023-05-14T06:40:05.186Z,13.7415
2023-05-14T06:41:05.350Z,13.7563
2023-05-14T06:43:07.611Z,13.7958
2023-05-14T06:48:17.027Z,13.9840
2023-05-14T06:49:17.961Z,13.9974
2023-05-14T06:50:18.883Z,14.0097
2023-05-14T06:54:38.691Z,14.1076
2023-05-14T06:55:39.799Z,14.1209
2023-05-14T06:56:40.053Z,14.1366
2023-05-14T06:57:41.024Z,14.1515
2023-05-14T06:58:42.843Z,14.1624
2023-05-14T07:00:42.978Z,14.1908
2023-05-14T07:01:44.088Z,14.2228
2023-05-14T07:02:45.032Z,14.2682
2023-05-14T07:09:26.055Z,14.5575
2023-05-14T07:10:28.654Z,14.5726
2023-05-14T07:18:08.915Z,14.5699
2023-05-14T07:19:09.746Z,14.5841
2023-05-14T07:20:11.216Z,14.5907
2023-05-14T07:21:11.335Z,14.5914
2023-05-14T07:22:12.969Z,14.5838
2023-05-14T07:23:13.756Z,14.6075
2023-05-14T07:25:14.655Z,14.7115
2023-05-14T07:26:14.711Z,14.7675
2023-05-14T07:27:15.726Z,14.8302
2023-05-14T07:28:17.188Z,14.9176
2023-05-14T07:29:17.237Z,15.0293
2023-05-14T07:30:17.693Z,15.1759
2023-05-14T07:31:19.364Z,15.3534
2023-05-14T07:32:20.246Z,15.5423
2023-05-14T07:36:21.477Z,16.4173
2023-05-14T07:38:22.457Z,16.7527
2023-05-14T07:39:22.758Z,16.8501
2023-05-14T07:40:23.081Z,16.9183
2023-05-14T07:46:25.179Z,17.1349
2023-05-14T07:47:26.518Z,17.3019
2023-05-14T07:48:27.015Z,17.5467
2023-05-14T07:49:27.935Z,17.7681
2023-05-14T07:50:29.142Z,18.0101
2023-05-14T07:51:30.206Z,18.2490
2023-05-14T07:52:31.957Z,18.4663
2023-05-14T07:53:32.585Z,18.8946
2023-05-14T07:54:33.388Z,19.3861
2023-05-14T07:55:34.145Z,19.8623
2023-05-14T07:56:46.949Z,20.3345
2023-05-14T08:06:54.103Z,20.7449
2023-05-14T08:10:56.994Z,20.9627
2023-05-14T08:13:57.140Z,21.0733
2023-05-14T08:14:57.616Z,21.2086
2023-05-14T08:15:57.624Z,21.2819
2023-05-14T08:16:58.854Z,21.3356
2023-05-14T08:17:59.454Z,21.3011
2023-05-14T08:19:00.497Z,21.1931
2023-05-14T08:20:01.839Z,21.0692
2023-05-14T08:21:05.408Z,21.0274
2023-05-14T08:22:06.196Z,21.1580
2023-05-14T08:23:07.412Z,21.4511
2023-05-14T08:25:10.066Z,21.9645
2023-05-14T08:26:10.436Z,22.1796
2023-05-14T08:29:46.208Z,22.1212
2023-05-14T08:30:46.630Z,21.9995
2023-05-14T08:31:46.858Z,21.8719
2023-05-14T08:32:47.489Z,21.7516
2023-05-14T08:33:48.502Z,21.6528
2023-05-14T08:34:50.003Z,21.5615
2023-05-14T08:36:55.195Z,21.4159
2023-05-14T08:37:55.678Z,21.3239
2023-05-14T08:38:56.018Z,21.2201
2023-05-14T08:39:56.454Z,21.1324
2023-05-14T08:40:56.939Z,21.0784
2023-05-14T08:41:57.801Z,21.0616
2023-05-14T08:42:58.951Z,21.0762
2023-05-14T08:43:59.736Z,21.1205
2023-05-14T08:45:00.781Z,21.1783
2023-05-14T08:46:01.897Z,21.2611
2023-05-14T08:47:02.246Z,21.3745
2023-05-14T08:48:04.863Z,21.4816
2023-05-14T08:50:03.718Z,21.6936
2023-05-14T08:51:04.191Z,21.7626
2023-05-14T08:52:04.948Z,21.8085
2023-05-14T08:53:05.528Z,21.8918
2023-05-14T08:54:05.723Z,22.0060
2023-05-14T08:55:06.651Z,22.1257
2023-05-14T08:56:06.526Z,22.2643
2023-05-14T08:57:07.012Z,22.4042
2023-05-14T09:05:14.789Z,24.0805
2023-05-14T09:06:15.580Z,24.4166
2023-05-14T09:07:16.249Z,24.7523
2023-05-14T09:09:04.183Z,25.2281
2023-05-14T09:10:04.608Z,25.2514
2023-05-14T09:11:06.628Z,25.2000
2023-05-14T09:12:07.477Z,25.1056
2023-05-14T09:13:08.683Z,25.0389
2023-05-14T09:14:09.880Z,25.0013
2023-05-14T09:15:10.941Z,25.1192
2023-05-14T09:16:12.466Z,25.1639
2023-05-14T09:17:12.255Z,25.1415
2023-05-14T09:18:13.495Z,25.0698
2023-05-14T09:19:14.227Z,24.9814
2023-05-14T09:20:15.167Z,24.8810
2023-05-14T09:24:04.407Z,24.3941
2023-05-14T09:30:09.629Z,23.4958
2023-05-14T09:31:09.740Z,23.3708
2023-05-14T09:33:09.799Z,23.0247
2023-05-14T09:35:10.686Z,22.5146
2023-05-14T09:36:11.969Z,22.2893
2023-05-14T09:37:12.892Z,22.1533
2023-05-14T09:43:22.971Z,22.5187
2023-05-14T09:46:26.617Z,23.0203
2023-05-14T09:47:26.917Z,23.1589
2023-05-14T09:48:26.985Z,23.2980
2023-05-14T09:49:27.810Z,23.4359
2023-05-14T09:51:29.033Z,23.7156
2023-05-14T09:52:29.700Z,23.8969
2023-05-14T09:53:30.756Z,24.0108
2023-05-14T09:57:58.389Z,24.0569
2023-05-14T09:58:58.897Z,23.9056
2023-05-14T10:00:00.001Z,23.6929
2023-05-14T10:01:01.078Z,23.4542
2023-05-14T10:02:02.260Z,23.2377
2023-05-14T10:03:02.262Z,22.9706
2023-05-14T10:04:04.057Z,22.8133
2023-05-14T10:05:05.262Z,22.7051
2023-05-14T10:06:05.399Z,22.6319
2023-05-14T10:07:06.413Z,22.5495
2023-05-14T10:08:06.792Z,22.4066
2023-05-14T10:09:07.405Z,22.2184
2023-05-14T10:10:08.514Z,22.0487
2023-05-14T10:12:09.651Z,21.7690
2023-05-14T10:13:10.601Z,21.6852
2023-05-14T10:16:41.015Z,21.7567
2023-05-14T10:17:41.149Z,21.7996
2023-05-14T10:18:42.303Z,21.8407
2023-05-14T10:19:43.166Z,21.9182
2023-05-14T10:20:44.306Z,22.0178
2023-05-14T10:21:45.144Z,22.1129
2023-05-14T10:22:45.408Z,22.1595
2023-05-14T10:29:25.077Z,22.3418
2023-05-14T10:30:26.446Z,22.3607
2023-05-14T10:31:26.430Z,22.3306
2023-05-14T10:32:27.166Z,22.2462
2023-05-14T10:33:27.679Z,22.1435
2023-05-14T10:34:29.008Z,22.0568
2023-05-14T10:35:30.244Z,21.9783
2023-05-14T10:36:31.102Z,21.8527
2023-05-14T10:37:31.752Z,21.7191
2023-05-14T10:42:20.660Z,21.7076
2023-05-14T10:51:07.710Z,21.8477
2023-05-14T10:52:07.749Z,21.8688
2023-05-14T10:53:08.717Z,21.9500
2023-05-14T10:54:09.123Z,22.0418
2023-05-14T10:55:10.404Z,22.1503
2023-05-14T10:56:10.629Z,22.2716
2023-05-14T10:57:11.346Z,22.3677
2023-05-14T10:58:11.531Z,22.4195
2023-05-14T10:59:12.615Z,22.4335
2023-05-14T11:00:13.273Z,22.4392
2023-05-14T11:01:13.329Z,22.4359
2023-05-14T11:02:15.901Z,22.4295
2023-05-14T11:06:40.378Z,23.6185
2023-05-14T11:10:41.680Z,26.3814
2023-05-14T11:11:42.771Z,27.2085
2023-05-14T11:12:43.440Z,27.9420
2023-05-14T11:13:44.244Z,28.5174
2023-05-14T11:18:48.534Z,28.9210
2023-05-14T11:19:50.461Z,28.5638
2023-05-14T11:31:31.454Z,23.5056
2023-05-14T11:32:31.719Z,23.2486
2023-05-14T11:33:33.341Z,23.0405
2023-05-14T11:34:33.322Z,22.8751
2023-05-14T11:35:34.284Z,22.7319
2023-05-14T11:36:36.277Z,22.5410
2023-05-14T11:38:36.441Z,22.1867
2023-05-14T11:41:39.737Z,22.0587
2023-05-14T11:43:45.782Z,22.0830
2023-05-14T11:48:53.674Z,22.3096
2023-05-14T11:49:53.924Z,22.3142
2023-05-14T11:51:29.098Z,22.1903
2023-05-14T11:53:33.493Z,22.0925
2023-05-14T11:55:31.290Z,22.0367
2023-05-14T11:58:32.230Z,22.1031
2023-05-14T11:59:33.201Z,22.2012
2023-05-14T12:01:34.298Z,22.4524
2023-05-14T12:02:35.234Z,22.5892
2023-05-14T12:03:35.821Z,22.7320
2023-05-14T12:04:35.482Z,22.8841
2023-05-14T12:05:36.148Z,23.0241
2023-05-14T12:06:38.167Z,23.0880
2023-05-14T12:07:37.924Z,23.0289
2023-05-14T12:12:40.472Z,21.4881
2023-05-14T12:13:41.867Z,21.0664
2023-05-14T12:14:42.592Z,20.6436
2023-05-14T12:21:54.434Z,18.7313
2023-05-14T12:22:55.209Z,18.5534
2023-05-14T12:23:55.923Z,18.3858
2023-05-14T12:24:57.145Z,18.2452
2023-05-14T12:25:57.719Z,18.1214
2023-05-14T12:26:58.028Z,18.0033
2023-05-14T12:27:58.380Z,17.8991
2023-05-14T12:28:59.170Z,17.8017
2023-05-14T12:30:09.203Z,17.6936
2023-05-14T12:31:00.486Z,17.5816
2023-05-14T12:33:02.928Z,17.4586
2023-05-14T12:34:04.087Z,17.3919
2023-05-14T12:36:20.746Z,17.2336
2023-05-14T12:37:07.549Z,17.1509
2023-05-14T12:38:07.682Z,17.0793
2023-05-14T12:39:08.894Z,17.0186
2023-05-14T12:40:10.353Z,16.9745
2023-05-14T12:41:11.491Z,16.9286
2023-05-14T12:42:12.172Z,16.8863
2023-05-14T12:43:12.506Z,16.8421
2023-05-14T12:45:13.720Z,16.7767
2023-05-14T12:49:17.886Z,16.8586
2023-05-14T12:51:19.740Z,17.0166
2023-05-14T12:53:24.058Z,17.2049
2023-05-14T12:56:25.357Z,17.4391
2023-05-14T12:58:26.328Z,17.5439
2023-05-14T12:59:26.587Z,17.5876
2023-05-14T13:00:26.922Z,17.6232
2023-05-14T13:01:27.608Z,17.6410
2023-05-14T13:02:28.637Z,17.6519
2023-05-14T13:03:29.138Z,17.6527
2023-05-14T13:04:30.438Z,17.6493
2023-05-14T13:05:31.541Z,17.6500
2023-05-14T13:06:32.491Z,17.6611
2023-05-14T13:07:32.957Z,17.6807
2023-05-14T13:08:33.400Z,17.7069
2023-05-14T13:09:33.980Z,17.7471
2023-05-14T13:10:34.598Z,17.7960
2023-05-14T13:17:42.272Z,18.2310
2023-05-14T13:19:42.870Z,18.4131
2023-05-14T13:20:43.482Z,18.4936
2023-05-14T13:21:44.105Z,18.5648
2023-05-14T13:22:44.853Z,18.6503
2023-05-14T13:24:46.768Z,18.8734
2023-05-14T13:27:47.396Z,19.2335
2023-05-14T13:29:48.274Z,19.4796
2023-05-14T13:36:53.498Z,20.5856
2023-05-14T13:37:54.516Z,20.7711
2023-05-14T13:38:55.648Z,20.9378
2023-05-14T13:39:55.921Z,21.0975
2023-05-14T13:40:56.322Z,21.2345
2023-05-14T13:41:56.628Z,21.3436
2023-05-14T13:42:57.701Z,21.4496
2023-05-14T13:43:58.388Z,21.5404
2023-05-14T13:45:58.741Z,21.6725
2023-05-14T13:46:58.944Z,21.7368
2023-05-14T13:47:59.526Z,21.8088
2023-05-14T13:48:59.625Z,21.8832
2023-05-14T13:50:00.865Z,21.9670
2023-05-14T13:51:02.019Z,22.0552
2023-05-14T13:52:02.447Z,22.1411
2023-05-14T13:53:03.301Z,22.2002
2023-05-14T13:54:04.301Z,22.2554
2023-05-14T13:55:04.976Z,22.3121
2023-05-14T13:56:05.321Z,22.3648
2023-05-14T13:57:06.434Z,22.4546
2023-05-14T13:58:06.861Z,22.5897
2023-05-14T13:59:06.689Z,22.7518
2023-05-14T14:00:07.354Z,22.9133
2023-05-14T14:01:07.701Z,23.0976
2023-05-14T14:03:08.775Z,23.8540
2023-05-14T14:04:09.603Z,24.3889
2023-05-14T14:05:10.144Z,24.8502
2023-05-14T14:06:10.472Z,25.2082
2023-05-14T14:07:11.301Z,25.5435
2023-05-14T14:08:23.473Z,25.9078
2023-05-14T14:09:19.039Z,26.4027
2023-05-14T14:12:20.772Z,26.7788
2023-05-14T14:13:21.778Z,26.7085
2023-05-14T14:14:20.932Z,26.6032
2023-05-14T14:15:20.937Z,26.5107
2023-05-14T14:16:22.129Z,26.5005
2023-05-14T14:17:23.109Z,26.6700
2023-05-14T14:25:28.709Z,27.7211
2023-05-14T14:26:28.718Z,27.7164
2023-05-14T14:27:29.449Z,27.7370
2023-05-14T14:28:29.759Z,27.7071
2023-05-14T14:29:29.853Z,27.6305
2023-05-14T14:30:30.958Z,27.5222
2023-05-14T14:31:31.860Z,27.4051
2023-05-14T14:32:33.058Z,27.2853
2023-05-14T14:33:33.480Z,27.1241
2023-05-14T14:34:34.567Z,26.9270
2023-05-14T14:35:35.329Z,26.6588
2023-05-14T14:36:35.785Z,26.3453
2023-05-14T14:37:37.340Z,26.0103
2023-05-14T14:44:39.665Z,23.7673
2023-05-14T14:45:40.014Z,23.4796
2023-05-14T14:46:41.032Z,23.1715
2023-05-14T14:47:42.171Z,22.8433
2023-05-14T14:48:42.501Z,22.5350
2023-05-14T14:49:43.372Z,22.2180
2023-05-14T14:50:43.824Z,21.8911
2023-05-14T14:51:45.472Z,21.5447
2023-05-14T14:52:46.742Z,21.1737
2023-05-14T14:53:47.152Z,20.7610
2023-05-14T14:54:47.356Z,20.3448
2023-05-14T14:55:48.613Z,19.9601
2023-05-14T14:56:49.833Z,19.5990
2023-05-14T14:57:51.061Z,19.2446
2023-05-14T14:58:51.011Z,18.8957
2023-05-14T14:59:51.059Z,18.5776
2023-05-14T15:00:52.163Z,18.2677
2023-05-14T15:01:52.667Z,17.9742
2023-05-14T15:02:52.930Z,17.6889
2023-05-14T15:03:54.010Z,17.4401
2023-05-14T15:04:54.753Z,17.2089
2023-05-14T15:05:55.498Z,16.9983
2023-05-14T15:06:55.902Z,16.8080
2023-05-14T15:07:56.360Z,16.6264
2023-05-14T15:08:57.465Z,16.4523
2023-05-14T15:09:58.014Z,16.2850
2023-05-14T15:10:58.208Z,16.1299
2023-05-14T15:11:58.437Z,15.9784
2023-05-14T15:12:58.534Z,15.8296
2023-05-14T15:13:59.154Z,15.6911
2023-05-14T15:14:59.615Z,15.5598
2023-05-14T15:16:00.701Z,15.4351
2023-05-14T15:17:01.240Z,15.3143
2023-05-14T15:18:02.418Z,15.1964
2023-05-14T15:19:02.691Z,15.0870
2023-05-14T15:20:03.305Z,14.9915
2023-05-14T15:21:04.445Z,14.9058
2023-05-14T15:22:04.440Z,14.8333
2023-05-14T15:23:05.124Z,14.7659
2023-05-14T15:24:05.786Z,14.7072
2023-05-14T15:25:05.997Z,14.6521
2023-05-14T15:26:06.025Z,14.5970
2023-05-14T15:27:07.096Z,14.5521
2023-05-14T15:28:08.216Z,14.5099
2023-05-14T15:29:08.455Z,14.4665
2023-05-14T15:30:09.203Z,14.4249
2023-05-14T15:31:10.253Z,14.3854
2023-05-14T15:32:11.610Z,14.3457
2023-05-14T15:33:12.387Z,14.3080
2023-05-14T15:34:14.053Z,14.2681
2023-05-14T15:35:13.751Z,14.2373
2023-05-14T15:36:14.213Z,14.2111
2023-05-14T15:37:14.290Z,14.1834
2023-05-14T15:38:15.311Z,14.1554
2023-05-14T15:39:15.696Z,14.1266
2023-05-14T15:40:16.000Z,14.0995
2023-05-14T15:41:17.366Z,14.0752
2023-05-14T15:43:18.195Z,14.0587
2023-05-14T15:45:20.945Z,14.0632
2023-05-14T15:46:22.054Z,14.0785
2023-05-14T15:47:22.791Z,14.1061
2023-05-14T15:48:23.848Z,14.1434
2023-05-14T15:49:24.193Z,14.1855
2023-05-14T15:50:25.276Z,14.2387
2023-05-14T15:51:25.122Z,14.3020
2023-05-14T15:52:26.116Z,14.3731
2023-05-14T15:53:26.977Z,14.4493
2023-05-14T15:54:27.835Z,14.5273
2023-05-14T15:55:28.098Z,14.5985
2023-05-14T15:56:28.931Z,14.6727
2023-05-14T15:57:29.790Z,14.7455
2023-05-14T15:58:29.856Z,14.8168
2023-05-14T15:59:30.890Z,14.8851
2023-05-14T16:00:32.024Z,14.9509
2023-05-14T16:01:32.556Z,15.0162
2023-05-14T16:02:33.449Z,15.0793
2023-05-14T16:03:34.067Z,15.1390
2023-05-14T16:04:34.371Z,15.1892
2023-05-14T16:05:35.517Z,15.2169
2023-05-14T16:06:36.278Z,15.2174
2023-05-14T16:07:37.534Z,15.1988
2023-05-14T16:08:38.275Z,15.1696
2023-05-14T16:09:38.778Z,15.1209
2023-05-14T16:10:39.668Z,15.0684
2023-05-14T16:11:39.885Z,15.0046
2023-05-14T16:12:40.790Z,14.9223
2023-05-14T16:14:42.079Z,14.7467
2023-05-14T16:16:42.776Z,14.6160
2023-05-14T16:17:44.504Z,14.5525
2023-05-14T16:18:45.368Z,14.4834
2023-05-14T16:19:45.783Z,14.4158
2023-05-14T16:20:46.731Z,14.3607
2023-05-14T16:21:47.211Z,14.3099
2023-05-14T16:22:47.841Z,14.2643
2023-05-14T16:23:48.648Z,14.2260
2023-05-14T16:24:49.149Z,14.1891
2023-05-14T16:25:50.498Z,14.1552
2023-05-14T16:27:50.759Z,14.0958
2023-05-14T16:28:52.335Z,14.0612
2023-05-14T16:29:52.762Z,14.0244
2023-05-14T16:30:53.926Z,13.9786
2023-05-14T16:31:54.946Z,13.9267
2023-05-14T16:32:56.051Z,13.8792
2023-05-14T16:33:57.194Z,13.8260
2023-05-14T16:34:57.652Z,13.7737
2023-05-14T16:35:58.169Z,13.7235
2023-05-14T16:38:00.089Z,13.6237
2023-05-14T16:39:07.314Z,13.5791
2023-05-14T16:40:03.325Z,13.5251
2023-05-14T16:41:03.843Z,13.4832
2023-05-14T16:42:03.932Z,13.4426
2023-05-14T16:43:04.809Z,13.4036
2023-05-14T16:44:05.044Z,13.3660
2023-05-14T16:45:05.805Z,13.3308
2023-05-14T16:46:06.497Z,13.2932
2023-05-14T16:47:07.231Z,13.2584
2023-05-14T16:49:08.146Z,13.1927
2023-05-14T16:52:09.814Z,13.0937
2023-05-14T16:53:10.128Z,13.0586
2023-05-14T16:54:10.276Z,13.0251
2023-05-14T16:57:13.330Z,12.9241
2023-05-14T16:58:14.193Z,12.8928
2023-05-14T16:59:15.334Z,12.8598
2023-05-14T17:00:16.442Z,12.8289
2023-05-14T17:01:17.833Z,12.7992
2023-05-14T17:02:18.638Z,12.7680
2023-05-14T17:03:18.681Z,12.7435
2023-05-14T17:04:19.321Z,12.7217
2023-05-14T17:05:19.690Z,12.7045
2023-05-14T17:06:20.564Z,12.6853
2023-05-14T17:07:21.362Z,12.6598
2023-05-14T17:08:22.681Z,12.6361
2023-05-14T17:09:24.115Z,12.6118
2023-05-14T17:10:24.450Z,12.5871
2023-05-14T17:11:25.543Z,12.5642
2023-05-14T17:12:25.746Z,12.5410
2023-05-14T17:15:28.129Z,12.4632
2023-05-14T17:16:27.870Z,12.4381
2023-05-14T17:17:28.761Z,12.4133
2023-05-14T17:19:29.431Z,12.3634
2023-05-14T17:20:29.911Z,12.3387
2023-05-14T17:22:32.389Z,12.2904
2023-05-14T17:23:32.565Z,12.2676
2023-05-14T17:24:32.630Z,12.2440
2023-05-14T17:25:33.398Z,12.2234
2023-05-14T17:27:36.861Z,12.1832
2023-05-14T17:28:38.013Z,12.1685
2023-05-14T17:29:39.351Z,12.1565
2023-05-14T17:30:39.416Z,12.1455
2023-05-14T17:31:40.269Z,12.1369
2023-05-14T17:32:41.621Z,12.1298
2023-05-14T17:33:42.600Z,12.1230
2023-05-14T17:34:43.595Z,12.1159
2023-05-14T17:35:44.463Z,12.1109
2023-05-14T17:36:44.371Z,12.1058
2023-05-14T17:37:45.120Z,12.1028
2023-05-14T17:38:47.508Z,12.0996
2023-05-14T17:48:53.030Z,12.1407
2023-05-14T17:49:53.201Z,12.1486
2023-05-14T17:50:54.249Z,12.1564
2023-05-14T17:51:55.167Z,12.1682
2023-05-14T17:52:56.789Z,12.1839
2023-05-14T17:53:56.383Z,12.2041
2023-05-14T17:54:57.246Z,12.2266
2023-05-14T17:55:57.346Z,12.2487
2023-05-14T17:56:58.110Z,12.2711
2023-05-14T17:57:59.321Z,12.2917
2023-05-14T17:59:00.055Z,12.3105
2023-05-14T18:00:01.183Z,12.3284
2023-05-14T18:01:01.301Z,12.3464
2023-05-14T18:02:01.942Z,12.3608
2023-05-14T18:03:02.360Z,12.3748
2023-05-14T18:04:02.549Z,12.3857
2023-05-14T18:05:02.998Z,12.3950
2023-05-14T18:06:03.592Z,12.4032
2023-05-14T18:07:04.522Z,12.4112
2023-05-14T18:08:05.957Z,12.4188
2023-05-14T18:09:07.105Z,12.4250
2023-05-14T18:10:07.167Z,12.4320
2023-05-14T18:11:07.917Z,12.4404
2023-05-14T18:12:08.697Z,12.4518
2023-05-14T18:13:09.675Z,12.4659
2023-05-14T18:14:11.055Z,12.4849
2023-05-14T18:15:11.328Z,12.5063
2023-05-14T18:16:12.015Z,12.5299
2023-05-14T18:17:12.367Z,12.5502
2023-05-14T18:18:12.655Z,12.5604
2023-05-14T18:19:13.387Z,12.5687
2023-05-14T18:20:13.487Z,12.5734
2023-05-14T18:21:14.830Z,12.5736
2023-05-14T18:23:15.340Z,12.5482
2023-05-14T18:24:16.039Z,12.5189
2023-05-14T18:25:16.636Z,12.4887
2023-05-14T18:26:18.008Z,12.4591
2023-05-14T18:28:19.014Z,12.4037
2023-05-14T18:29:19.918Z,12.3761
2023-05-14T18:30:20.327Z,12.3505
2023-05-14T18:31:21.041Z,12.3249
2023-05-14T18:32:21.202Z,12.3017
2023-05-14T18:42:12.675Z,12.0821
2023-05-14T18:43:13.708Z,12.0635
2023-05-14T18:44:13.862Z,12.0464
2023-05-14T18:45:14.512Z,12.0300
2023-05-14T18:46:16.056Z,12.0107
2023-05-14T18:47:17.084Z,11.9927
2023-05-14T18:48:17.150Z,11.9764
2023-05-14T18:49:18.397Z,11.9596
2023-05-14T18:50:19.269Z,11.9420
2023-05-14T18:51:19.374Z,11.9239
2023-05-14T18:52:20.435Z,11.9034
2023-05-14T18:53:22.302Z,11.8788
2023-05-14T18:58:26.618Z,11.7776
2023-05-14T18:59:26.904Z,11.7586
2023-05-14T19:01:27.801Z,11.7186
2023-05-14T19:04:33.135Z,11.6533
2023-05-14T19:05:31.141Z,11.6253
2023-05-14T19:11:35.279Z,11.5005
2023-05-14T19:12:35.509Z,11.4773
2023-05-14T19:14:38.572Z,11.4358
2023-05-14T19:15:38.721Z,11.4132
2023-05-14T19:16:39.995Z,11.3932
2023-05-14T19:17:42.078Z,11.3720
2023-05-14T19:18:42.729Z,11.3484
2023-05-14T19:23:45.721Z,11.2885
2023-05-14T19:24:46.959Z,11.2797
2023-05-14T19:28:48.893Z,11.2284